sensor_id;sensor_type;location;lat;lon;timestamp;P1;durP1;ratioP1;P2;durP2;ratioP2
51525;SDS011;37611;51.794;21.590;2022-09-27T00:01:14;26.40;;;23.60;;
51525;SDS011;37611;51.794;21.590;2022-09-27T00:05:16;26.40;;;23.70;;
51525;SDS011;37611;51.794;21.590;2022-09-27T00:09:19;25.70;;;23.00;;
51525;SDS011;37611;51.794;21.590;2022-09-27T00:13:20;26.30;;;23.50;;
51525;SDS011;37611;51.794;21.590;2022-09-27T00:17:22;24.70;;;22.10;;
51525;SDS011;37611;51.794;21.590;2022-09-27T00:21:24;24.90;;;22.40;;
51525;SDS011;37611;51.794;21.590;2022-09-27T00:25:27;25.20;;;22.40;;
51525;SDS011;37611;51.794;21.590;2022-09-27T00:29:28;22.80;;;20.10;;
51525;SDS011;37611;51.794;21.590;2022-09-27T00:33:30;22.50;;;20.30;;
51525;SDS011;37611;51.794;21.590;2022-09-27T00:37:32;23.50;;;20.60;;
51525;SDS011;37611;51.794;21.590;2022-09-27T00:41:34;23.30;;;20.90;;
51525;SDS011;37611;51.794;21.590;2022-09-27T00:45:38;22.20;;;19.90;;
51525;SDS011;37611;51.794;21.590;2022-09-27T00:49:41;21.50;;;19.30;;
51525;SDS011;37611;51.794;21.590;2022-09-27T00:53:52;19.20;;;17.20;;
51525;SDS011;37611;51.794;21.590;2022-09-27T00:57:57;22.10;;;17.70;;
51525;SDS011;37611;51.794;21.590;2022-09-27T01:02:01;19.30;;;17.40;;
51525;SDS011;37611;51.794;21.590;2022-09-27T01:06:07;19.90;;;17.10;;
51525;SDS011;37611;51.794;21.590;2022-09-27T01:10:10;17.90;;;16.00;;
51525;SDS011;37611;51.794;21.590;2022-09-27T01:14:19;18.00;;;16.20;;
51525;SDS011;37611;51.794;21.590;2022-09-27T01:18:39;18.20;;;16.30;;
51525;SDS011;37611;51.794;21.590;2022-09-27T01:31:39;16.60;;;14.80;;
51525;SDS011;37611;51.794;21.590;2022-09-27T01:35:56;16.50;;;14.80;;
51525;SDS011;37611;51.794;21.590;2022-09-27T01:44:38;17.40;;;15.00;;
51525;SDS011;37611;51.794;21.590;2022-09-27T01:48:48;16.60;;;14.40;;
51525;SDS011;37611;51.794;21.590;2022-09-27T01:52:56;19.10;;;14.80;;
51525;SDS011;37611;51.794;21.590;2022-09-27T01:57:03;16.00;;;13.70;;
51525;SDS011;37611;51.794;21.590;2022-09-27T02:01:11;16.20;;;14.50;;
51525;SDS011;37611;51.794;21.590;2022-09-27T02:05:15;17.10;;;14.10;;
51525;SDS011;37611;51.794;21.590;2022-09-27T02:09:32;15.70;;;14.00;;
51525;SDS011;37611;51.794;21.590;2022-09-27T02:13:53;17.00;;;14.90;;
51525;SDS011;37611;51.794;21.590;2022-09-27T02:18:01;15.20;;;13.50;;
51525;SDS011;37611;51.794;21.590;2022-09-27T02:26:39;16.60;;;13.80;;
51525;SDS011;37611;51.794;21.590;2022-09-27T02:30:42;12.80;;;11.50;;
51525;SDS011;37611;51.794;21.590;2022-09-27T02:34:44;11.90;;;10.60;;
51525;SDS011;37611;51.794;21.590;2022-09-27T02:38:49;11.50;;;10.10;;
51525;SDS011;37611;51.794;21.590;2022-09-27T02:42:51;11.20;;;10.00;;
51525;SDS011;37611;51.794;21.590;2022-09-27T03:08:40;12.30;;;10.20;;
51525;SDS011;37611;51.794;21.590;2022-09-27T03:12:44;12.50;;;11.10;;
51525;SDS011;37611;51.794;21.590;2022-09-27T03:16:46;14.20;;;10.40;;
51525;SDS011;37611;51.794;21.590;2022-09-27T03:20:48;9.80;;;8.60;;
51525;SDS011;37611;51.794;21.590;2022-09-27T03:24:49;11.60;;;10.30;;
51525;SDS011;37611;51.794;21.590;2022-09-27T03:28:51;12.30;;;10.80;;
51525;SDS011;37611;51.794;21.590;2022-09-27T03:32:53;13.90;;;11.10;;
51525;SDS011;37611;51.794;21.590;2022-09-27T03:36:55;30.90;;;27.40;;
51525;SDS011;37611;51.794;21.590;2022-09-27T03:40:56;54.70;;;49.20;;
51525;SDS011;37611;51.794;21.590;2022-09-27T03:44:59;32.70;;;28.80;;
51525;SDS011;37611;51.794;21.590;2022-09-27T03:49:01;21.50;;;19.40;;
51525;SDS011;37611;51.794;21.590;2022-09-27T03:53:02;56.10;;;50.80;;
51525;SDS011;37611;51.794;21.590;2022-09-27T03:57:04;50.40;;;45.60;;
51525;SDS011;37611;51.794;21.590;2022-09-27T04:01:06;23.70;;;18.60;;
51525;SDS011;37611;51.794;21.590;2022-09-27T04:05:08;16.70;;;13.30;;
51525;SDS011;37611;51.794;21.590;2022-09-27T04:09:10;18.60;;;14.20;;
51525;SDS011;37611;51.794;21.590;2022-09-27T04:13:11;22.00;;;19.20;;
51525;SDS011;37611;51.794;21.590;2022-09-27T04:17:13;15.80;;;11.80;;
51525;SDS011;37611;51.794;21.590;2022-09-27T04:21:15;16.60;;;12.00;;
51525;SDS011;37611;51.794;21.590;2022-09-27T04:25:17;14.80;;;11.70;;
51525;SDS011;37611;51.794;21.590;2022-09-27T04:29:18;14.50;;;11.60;;
51525;SDS011;37611;51.794;21.590;2022-09-27T04:33:20;14.80;;;12.10;;
51525;SDS011;37611;51.794;21.590;2022-09-27T04:37:22;34.20;;;30.70;;
51525;SDS011;37611;51.794;21.590;2022-09-27T04:41:25;29.00;;;26.00;;
51525;SDS011;37611;51.794;21.590;2022-09-27T04:45:28;21.10;;;15.70;;
51525;SDS011;37611;51.794;21.590;2022-09-27T04:49:31;21.20;;;16.30;;
51525;SDS011;37611;51.794;21.590;2022-09-27T04:53:32;22.80;;;15.10;;
51525;SDS011;37611;51.794;21.590;2022-09-27T04:57:34;22.10;;;14.70;;
51525;SDS011;37611;51.794;21.590;2022-09-27T05:01:36;20.20;;;13.20;;
51525;SDS011;37611;51.794;21.590;2022-09-27T05:05:38;19.70;;;14.00;;
51525;SDS011;37611;51.794;21.590;2022-09-27T05:09:40;17.50;;;14.20;;
51525;SDS011;37611;51.794;21.590;2022-09-27T05:13:42;19.70;;;16.20;;
51525;SDS011;37611;51.794;21.590;2022-09-27T05:17:44;21.70;;;17.40;;
51525;SDS011;37611;51.794;21.590;2022-09-27T05:21:45;18.40;;;15.40;;
51525;SDS011;37611;51.794;21.590;2022-09-27T05:25:47;19.50;;;16.30;;
51525;SDS011;37611;51.794;21.590;2022-09-27T05:29:49;19.20;;;15.10;;
51525;SDS011;37611;51.794;21.590;2022-09-27T05:33:51;19.50;;;16.10;;
51525;SDS011;37611;51.794;21.590;2022-09-27T05:37:53;18.00;;;14.50;;
51525;SDS011;37611;51.794;21.590;2022-09-27T05:41:56;18.10;;;15.00;;
51525;SDS011;37611;51.794;21.590;2022-09-27T05:45:58;15.40;;;13.70;;
51525;SDS011;37611;51.794;21.590;2022-09-27T05:50:00;17.10;;;14.50;;
51525;SDS011;37611;51.794;21.590;2022-09-27T05:54:02;17.00;;;13.90;;
51525;SDS011;37611;51.794;21.590;2022-09-27T05:58:05;15.60;;;13.80;;
51525;SDS011;37611;51.794;21.590;2022-09-27T06:02:10;14.60;;;12.80;;
51525;SDS011;37611;51.794;21.590;2022-09-27T06:06:12;18.80;;;15.60;;
51525;SDS011;37611;51.794;21.590;2022-09-27T06:10:15;16.30;;;14.00;;
51525;SDS011;37611;51.794;21.590;2022-09-27T06:14:18;13.50;;;11.10;;
51525;SDS011;37611;51.794;21.590;2022-09-27T06:18:21;13.40;;;12.10;;
51525;SDS011;37611;51.794;21.590;2022-09-27T06:22:22;14.30;;;12.80;;
51525;SDS011;37611;51.794;21.590;2022-09-27T06:26:24;12.40;;;11.10;;
51525;SDS011;37611;51.794;21.590;2022-09-27T06:30:30;12.50;;;11.30;;
51525;SDS011;37611;51.794;21.590;2022-09-27T06:34:32;13.50;;;12.00;;
51525;SDS011;37611;51.794;21.590;2022-09-27T06:38:34;14.70;;;12.80;;
51525;SDS011;37611;51.794;21.590;2022-09-27T06:42:36;14.30;;;12.90;;
51525;SDS011;37611;51.794;21.590;2022-09-27T06:46:40;13.80;;;12.40;;
51525;SDS011;37611;51.794;21.590;2022-09-27T06:50:44;16.10;;;14.30;;
51525;SDS011;37611;51.794;21.590;2022-09-27T06:54:46;14.90;;;13.50;;
51525;SDS011;37611;51.794;21.590;2022-09-27T06:58:48;15.50;;;13.90;;
51525;SDS011;37611;51.794;21.590;2022-09-27T07:03:09;14.40;;;13.00;;
51525;SDS011;37611;51.794;21.590;2022-09-27T07:07:11;15.90;;;14.30;;
51525;SDS011;37611;51.794;21.590;2022-09-27T07:11:14;15.00;;;13.60;;
51525;SDS011;37611;51.794;21.590;2022-09-27T07:15:17;14.60;;;13.20;;
51525;SDS011;37611;51.794;21.590;2022-09-27T07:19:21;13.90;;;12.40;;
51525;SDS011;37611;51.794;21.590;2022-09-27T07:23:23;15.90;;;14.20;;
51525;SDS011;37611;51.794;21.590;2022-09-27T07:27:25;15.10;;;13.50;;
51525;SDS011;37611;51.794;21.590;2022-09-27T07:31:26;14.30;;;12.90;;
51525;SDS011;37611;51.794;21.590;2022-09-27T07:35:30;16.30;;;14.60;;
51525;SDS011;37611;51.794;21.590;2022-09-27T07:39:32;15.90;;;14.00;;
51525;SDS011;37611;51.794;21.590;2022-09-27T07:43:34;17.40;;;15.60;;
51525;SDS011;37611;51.794;21.590;2022-09-27T07:47:39;17.00;;;15.30;;
51525;SDS011;37611;51.794;21.590;2022-09-27T07:51:42;17.60;;;15.80;;
51525;SDS011;37611;51.794;21.590;2022-09-27T07:55:48;18.60;;;16.30;;
51525;SDS011;37611;51.794;21.590;2022-09-27T07:59:52;17.30;;;15.40;;
51525;SDS011;37611;51.794;21.590;2022-09-27T08:03:53;14.80;;;13.30;;
51525;SDS011;37611;51.794;21.590;2022-09-27T08:07:55;13.70;;;12.30;;
51525;SDS011;37611;51.794;21.590;2022-09-27T08:11:57;13.70;;;12.30;;
51525;SDS011;37611;51.794;21.590;2022-09-27T08:16:02;14.30;;;12.80;;
51525;SDS011;37611;51.794;21.590;2022-09-27T08:20:04;13.40;;;12.10;;
51525;SDS011;37611;51.794;21.590;2022-09-27T08:24:06;17.30;;;15.50;;
51525;SDS011;37611;51.794;21.590;2022-09-27T08:28:08;15.50;;;13.90;;
51525;SDS011;37611;51.794;21.590;2022-09-27T08:32:10;17.70;;;15.90;;
51525;SDS011;37611;51.794;21.590;2022-09-27T08:36:13;19.60;;;17.40;;
51525;SDS011;37611;51.794;21.590;2022-09-27T08:40:15;19.10;;;16.30;;
51525;SDS011;37611;51.794;21.590;2022-09-27T08:48:25;22.00;;;19.70;;
51525;SDS011;37611;51.794;21.590;2022-09-27T08:52:30;22.10;;;19.70;;
51525;SDS011;37611;51.794;21.590;2022-09-27T08:56:37;21.30;;;19.10;;
51525;SDS011;37611;51.794;21.590;2022-09-27T09:00:39;23.70;;;21.40;;
51525;SDS011;37611;51.794;21.590;2022-09-27T09:04:43;20.90;;;18.70;;
51525;SDS011;37611;51.794;21.590;2022-09-27T09:13:25;22.00;;;19.80;;
51525;SDS011;37611;51.794;21.590;2022-09-27T09:22:13;21.30;;;19.20;;
51525;SDS011;37611;51.794;21.590;2022-09-27T09:40:12;17.20;;;15.50;;
51525;SDS011;37611;51.794;21.590;2022-09-27T09:43:49;17.60;;;15.90;;
51525;SDS011;37611;51.794;21.590;2022-09-27T09:47:58;16.10;;;14.70;;
51525;SDS011;37611;51.794;21.590;2022-09-27T09:52:06;17.60;;;16.00;;
51525;SDS011;37611;51.794;21.590;2022-09-27T09:56:23;17.40;;;15.90;;
51525;SDS011;37611;51.794;21.590;2022-09-27T10:00:39;16.60;;;14.90;;
51525;SDS011;37611;51.794;21.590;2022-09-27T10:04:42;14.90;;;13.60;;
51525;SDS011;37611;51.794;21.590;2022-09-27T10:08:43;15.70;;;14.30;;
51525;SDS011;37611;51.794;21.590;2022-09-27T10:12:45;14.10;;;12.90;;
51525;SDS011;37611;51.794;21.590;2022-09-27T10:16:49;15.10;;;13.80;;
51525;SDS011;37611;51.794;21.590;2022-09-27T10:20:55;15.80;;;14.50;;
51525;SDS011;37611;51.794;21.590;2022-09-27T10:25:05;17.20;;;15.60;;
51525;SDS011;37611;51.794;21.590;2022-09-27T10:29:28;15.20;;;13.70;;
51525;SDS011;37611;51.794;21.590;2022-09-27T10:33:30;14.10;;;12.90;;
51525;SDS011;37611;51.794;21.590;2022-09-27T10:37:33;12.50;;;11.20;;
51525;SDS011;37611;51.794;21.590;2022-09-27T10:45:37;15.20;;;13.70;;
51525;SDS011;37611;51.794;21.590;2022-09-27T10:49:40;14.10;;;12.80;;
51525;SDS011;37611;51.794;21.590;2022-09-27T10:53:43;11.80;;;10.70;;
51525;SDS011;37611;51.794;21.590;2022-09-27T10:57:48;12.70;;;11.60;;
51525;SDS011;37611;51.794;21.590;2022-09-27T11:01:53;12.30;;;11.10;;
51525;SDS011;37611;51.794;21.590;2022-09-27T11:05:54;11.80;;;10.70;;
51525;SDS011;37611;51.794;21.590;2022-09-27T11:09:59;13.20;;;12.10;;
51525;SDS011;37611;51.794;21.590;2022-09-27T11:14:16;12.50;;;11.40;;
51525;SDS011;37611;51.794;21.590;2022-09-27T11:18:31;12.30;;;11.20;;
51525;SDS011;37611;51.794;21.590;2022-09-27T11:45:28;18.40;;;16.50;;
51525;SDS011;37611;51.794;21.590;2022-09-27T11:53:38;12.50;;;11.30;;
51525;SDS011;37611;51.794;21.590;2022-09-27T11:58:02;12.30;;;11.20;;
51525;SDS011;37611;51.794;21.590;2022-09-27T12:02:34;14.40;;;13.00;;
51525;SDS011;37611;51.794;21.590;2022-09-27T12:11:02;12.70;;;11.50;;
51525;SDS011;37611;51.794;21.590;2022-09-27T12:15:20;13.80;;;12.40;;
51525;SDS011;37611;51.794;21.590;2022-09-27T12:19:27;13.00;;;11.80;;
51525;SDS011;37611;51.794;21.590;2022-09-27T12:23:44;15.10;;;13.80;;
51525;SDS011;37611;51.794;21.590;2022-09-27T12:27:47;14.60;;;13.10;;
51525;SDS011;37611;51.794;21.590;2022-09-27T12:32:07;14.00;;;12.70;;
51525;SDS011;37611;51.794;21.590;2022-09-27T12:36:14;13.00;;;11.80;;
51525;SDS011;37611;51.794;21.590;2022-09-27T12:40:42;15.60;;;14.10;;
51525;SDS011;37611;51.794;21.590;2022-09-27T12:44:45;19.30;;;17.40;;
51525;SDS011;37611;51.794;21.590;2022-09-27T12:53:20;16.10;;;14.60;;
51525;SDS011;37611;51.794;21.590;2022-09-27T13:15:58;15.80;;;14.30;;
51525;SDS011;37611;51.794;21.590;2022-09-27T13:20:31;17.20;;;15.60;;
51525;SDS011;37611;51.794;21.590;2022-09-27T13:33:49;15.80;;;14.30;;
51525;SDS011;37611;51.794;21.590;2022-09-27T13:37:45;17.60;;;15.90;;
51525;SDS011;37611;51.794;21.590;2022-09-27T13:45:53;18.00;;;15.50;;
51525;SDS011;37611;51.794;21.590;2022-09-27T13:54:39;13.10;;;11.80;;
51525;SDS011;37611;51.794;21.590;2022-09-27T13:58:58;11.90;;;10.80;;
51525;SDS011;37611;51.794;21.590;2022-09-27T14:07:16;14.10;;;12.70;;
51525;SDS011;37611;51.794;21.590;2022-09-27T14:11:36;14.80;;;13.30;;
51525;SDS011;37611;51.794;21.590;2022-09-27T14:15:40;11.30;;;9.70;;
51525;SDS011;37611;51.794;21.590;2022-09-27T14:19:45;15.70;;;14.10;;
51525;SDS011;37611;51.794;21.590;2022-09-27T14:23:49;13.60;;;12.10;;
51525;SDS011;37611;51.794;21.590;2022-09-27T14:27:51;12.60;;;11.40;;
51525;SDS011;37611;51.794;21.590;2022-09-27T14:32:02;12.30;;;11.20;;
51525;SDS011;37611;51.794;21.590;2022-09-27T14:36:06;17.90;;;14.50;;
51525;SDS011;37611;51.794;21.590;2022-09-27T14:40:39;14.70;;;13.30;;
51525;SDS011;37611;51.794;21.590;2022-09-27T14:44:44;13.30;;;11.90;;
51525;SDS011;37611;51.794;21.590;2022-09-27T14:48:46;10.90;;;9.90;;
51525;SDS011;37611;51.794;21.590;2022-09-27T14:52:51;22.70;;;18.70;;
51525;SDS011;37611;51.794;21.590;2022-09-27T14:56:57;32.00;;;26.90;;
51525;SDS011;37611;51.794;21.590;2022-09-27T15:01:00;14.30;;;12.80;;
51525;SDS011;37611;51.794;21.590;2022-09-27T15:05:02;12.70;;;11.40;;
51525;SDS011;37611;51.794;21.590;2022-09-27T15:09:04;12.80;;;11.50;;
51525;SDS011;37611;51.794;21.590;2022-09-27T15:13:10;12.40;;;11.00;;
51525;SDS011;37611;51.794;21.590;2022-09-27T15:17:18;13.90;;;12.50;;
51525;SDS011;37611;51.794;21.590;2022-09-27T15:21:31;11.50;;;9.70;;
51525;SDS011;37611;51.794;21.590;2022-09-27T15:25:40;13.20;;;11.90;;
51525;SDS011;37611;51.794;21.590;2022-09-27T15:29:57;23.30;;;19.30;;
51525;SDS011;37611;51.794;21.590;2022-09-27T15:34:00;17.70;;;15.80;;
51525;SDS011;37611;51.794;21.590;2022-09-27T15:38:10;23.80;;;20.90;;
51525;SDS011;37611;51.794;21.590;2022-09-27T15:42:17;22.30;;;19.10;;
51525;SDS011;37611;51.794;21.590;2022-09-27T15:54:31;43.20;;;37.30;;
51525;SDS011;37611;51.794;21.590;2022-09-27T15:58:36;56.20;;;45.10;;
51525;SDS011;37611;51.794;21.590;2022-09-27T16:02:38;40.40;;;32.80;;
51525;SDS011;37611;51.794;21.590;2022-09-27T16:06:39;33.90;;;26.70;;
51525;SDS011;37611;51.794;21.590;2022-09-27T16:10:45;36.70;;;28.40;;
51525;SDS011;37611;51.794;21.590;2022-09-27T16:14:51;47.10;;;37.00;;
51525;SDS011;37611;51.794;21.590;2022-09-27T16:18:52;72.20;;;52.10;;
51525;SDS011;37611;51.794;21.590;2022-09-27T16:22:54;92.80;;;79.30;;
51525;SDS011;37611;51.794;21.590;2022-09-27T16:26:57;87.70;;;78.20;;
51525;SDS011;37611;51.794;21.590;2022-09-27T16:31:03;57.20;;;51.00;;
51525;SDS011;37611;51.794;21.590;2022-09-27T16:35:07;58.70;;;49.90;;
51525;SDS011;37611;51.794;21.590;2022-09-27T16:39:11;52.50;;;46.90;;
51525;SDS011;37611;51.794;21.590;2022-09-27T16:43:14;35.20;;;29.80;;
51525;SDS011;37611;51.794;21.590;2022-09-27T16:47:15;194.80;;;147.60;;
51525;SDS011;37611;51.794;21.590;2022-09-27T16:51:18;199.60;;;163.60;;
51525;SDS011;37611;51.794;21.590;2022-09-27T16:55:40;188.20;;;168.40;;
51525;SDS011;37611;51.794;21.590;2022-09-27T16:59:41;110.30;;;93.90;;
51525;SDS011;37611;51.794;21.590;2022-09-27T17:03:47;83.30;;;71.50;;
51525;SDS011;37611;51.794;21.590;2022-09-27T17:07:51;54.30;;;44.00;;
51525;SDS011;37611;51.794;21.590;2022-09-27T17:11:53;103.20;;;88.40;;
51525;SDS011;37611;51.794;21.590;2022-09-27T17:15:56;120.20;;;97.70;;
51525;SDS011;37611;51.794;21.590;2022-09-27T17:19:58;108.40;;;96.60;;
51525;SDS011;37611;51.794;21.590;2022-09-27T17:24:01;85.90;;;72.00;;
51525;SDS011;37611;51.794;21.590;2022-09-27T17:28:03;82.60;;;64.90;;
51525;SDS011;37611;51.794;21.590;2022-09-27T17:32:05;76.40;;;65.80;;
51525;SDS011;37611;51.794;21.590;2022-09-27T17:36:13;65.90;;;53.60;;
51525;SDS011;37611;51.794;21.590;2022-09-27T17:40:18;97.90;;;86.40;;
51525;SDS011;37611;51.794;21.590;2022-09-27T17:44:19;104.10;;;87.10;;
51525;SDS011;37611;51.794;21.590;2022-09-27T17:48:23;120.90;;;107.30;;
51525;SDS011;37611;51.794;21.590;2022-09-27T17:52:44;141.10;;;125.80;;
51525;SDS011;37611;51.794;21.590;2022-09-27T17:56:46;100.80;;;79.10;;
51525;SDS011;37611;51.794;21.590;2022-09-27T18:00:48;73.70;;;59.80;;
51525;SDS011;37611;51.794;21.590;2022-09-27T18:04:49;65.20;;;49.30;;
51525;SDS011;37611;51.794;21.590;2022-09-27T18:08:52;69.80;;;49.80;;
51525;SDS011;37611;51.794;21.590;2022-09-27T18:12:54;79.80;;;57.80;;
51525;SDS011;37611;51.794;21.590;2022-09-27T18:16:56;68.10;;;49.40;;
51525;SDS011;37611;51.794;21.590;2022-09-27T18:21:01;51.90;;;42.20;;
51525;SDS011;37611;51.794;21.590;2022-09-27T18:25:04;48.50;;;41.30;;
51525;SDS011;37611;51.794;21.590;2022-09-27T18:29:08;55.80;;;42.30;;
51525;SDS011;37611;51.794;21.590;2022-09-27T18:33:12;41.80;;;33.70;;
51525;SDS011;37611;51.794;21.590;2022-09-27T18:37:13;39.10;;;32.80;;
51525;SDS011;37611;51.794;21.590;2022-09-27T18:41:16;29.60;;;24.90;;
51525;SDS011;37611;51.794;21.590;2022-09-27T18:45:19;32.70;;;27.20;;
51525;SDS011;37611;51.794;21.590;2022-09-27T18:49:21;31.50;;;27.60;;
51525;SDS011;37611;51.794;21.590;2022-09-27T18:53:23;26.20;;;23.40;;
51525;SDS011;37611;51.794;21.590;2022-09-27T18:57:24;27.00;;;21.40;;
51525;SDS011;37611;51.794;21.590;2022-09-27T19:01:26;52.50;;;33.00;;
51525;SDS011;37611;51.794;21.590;2022-09-27T19:05:28;94.00;;;56.00;;
51525;SDS011;37611;51.794;21.590;2022-09-27T19:09:29;87.10;;;54.90;;
51525;SDS011;37611;51.794;21.590;2022-09-27T19:13:31;60.60;;;43.50;;
51525;SDS011;37611;51.794;21.590;2022-09-27T19:17:33;43.30;;;34.20;;
51525;SDS011;37611;51.794;21.590;2022-09-27T19:21:35;27.20;;;22.60;;
51525;SDS011;37611;51.794;21.590;2022-09-27T19:25:39;25.10;;;19.00;;
51525;SDS011;37611;51.794;21.590;2022-09-27T19:29:41;23.30;;;19.30;;
51525;SDS011;37611;51.794;21.590;2022-09-27T19:33:43;24.40;;;17.90;;
51525;SDS011;37611;51.794;21.590;2022-09-27T19:37:45;36.00;;;28.40;;
51525;SDS011;37611;51.794;21.590;2022-09-27T19:41:47;45.40;;;39.70;;
51525;SDS011;37611;51.794;21.590;2022-09-27T19:45:49;66.90;;;60.40;;
51525;SDS011;37611;51.794;21.590;2022-09-27T19:49:50;30.90;;;27.70;;
51525;SDS011;37611;51.794;21.590;2022-09-27T19:53:52;16.20;;;14.60;;
51525;SDS011;37611;51.794;21.590;2022-09-27T19:57:55;17.00;;;14.80;;
51525;SDS011;37611;51.794;21.590;2022-09-27T20:01:56;16.40;;;14.70;;
51525;SDS011;37611;51.794;21.590;2022-09-27T20:05:58;52.70;;;47.10;;
51525;SDS011;37611;51.794;21.590;2022-09-27T20:10:01;49.50;;;40.80;;
51525;SDS011;37611;51.794;21.590;2022-09-27T20:14:02;30.10;;;22.30;;
51525;SDS011;37611;51.794;21.590;2022-09-27T20:18:04;23.60;;;18.20;;
51525;SDS011;37611;51.794;21.590;2022-09-27T20:22:06;20.10;;;16.00;;
51525;SDS011;37611;51.794;21.590;2022-09-27T20:26:09;25.00;;;18.90;;
51525;SDS011;37611;51.794;21.590;2022-09-27T20:30:13;21.50;;;16.80;;
51525;SDS011;37611;51.794;21.590;2022-09-27T20:34:15;17.00;;;13.50;;
51525;SDS011;37611;51.794;21.590;2022-09-27T20:38:17;16.30;;;13.20;;
51525;SDS011;37611;51.794;21.590;2022-09-27T20:42:19;17.60;;;12.40;;
51525;SDS011;37611;51.794;21.590;2022-09-27T20:46:21;15.50;;;13.30;;
51525;SDS011;37611;51.794;21.590;2022-09-27T20:50:24;15.90;;;12.20;;
51525;SDS011;37611;51.794;21.590;2022-09-27T20:54:26;15.20;;;13.30;;
51525;SDS011;37611;51.794;21.590;2022-09-27T20:58:28;16.40;;;10.70;;
51525;SDS011;37611;51.794;21.590;2022-09-27T21:02:31;14.40;;;11.50;;
51525;SDS011;37611;51.794;21.590;2022-09-27T21:06:32;19.30;;;13.10;;
51525;SDS011;37611;51.794;21.590;2022-09-27T21:10:34;16.80;;;13.10;;
51525;SDS011;37611;51.794;21.590;2022-09-27T21:14:36;15.30;;;11.30;;
51525;SDS011;37611;51.794;21.590;2022-09-27T21:18:37;15.50;;;12.80;;
51525;SDS011;37611;51.794;21.590;2022-09-27T21:22:39;18.40;;;14.20;;
51525;SDS011;37611;51.794;21.590;2022-09-27T21:26:41;24.10;;;17.50;;
51525;SDS011;37611;51.794;21.590;2022-09-27T21:30:43;21.00;;;15.90;;
51525;SDS011;37611;51.794;21.590;2022-09-27T21:34:45;18.40;;;14.30;;
51525;SDS011;37611;51.794;21.590;2022-09-27T21:38:46;22.20;;;15.90;;
51525;SDS011;37611;51.794;21.590;2022-09-27T21:42:48;11.40;;;9.90;;
51525;SDS011;37611;51.794;21.590;2022-09-27T21:46:51;21.20;;;13.40;;
51525;SDS011;37611;51.794;21.590;2022-09-27T21:50:52;16.20;;;12.90;;
51525;SDS011;37611;51.794;21.590;2022-09-27T21:54:54;15.40;;;13.00;;
51525;SDS011;37611;51.794;21.590;2022-09-27T21:58:56;14.90;;;13.00;;
51525;SDS011;37611;51.794;21.590;2022-09-27T22:02:58;14.60;;;11.30;;
51525;SDS011;37611;51.794;21.590;2022-09-27T22:06:59;13.30;;;11.80;;
51525;SDS011;37611;51.794;21.590;2022-09-27T22:11:01;14.80;;;13.30;;
51525;SDS011;37611;51.794;21.590;2022-09-27T22:15:04;14.00;;;11.80;;
51525;SDS011;37611;51.794;21.590;2022-09-27T22:19:06;14.00;;;12.50;;
51525;SDS011;37611;51.794;21.590;2022-09-27T22:23:08;16.60;;;14.70;;
51525;SDS011;37611;51.794;21.590;2022-09-27T22:27:09;15.70;;;14.10;;
51525;SDS011;37611;51.794;21.590;2022-09-27T22:31:12;15.70;;;13.10;;
51525;SDS011;37611;51.794;21.590;2022-09-27T22:35:15;14.90;;;13.40;;
51525;SDS011;37611;51.794;21.590;2022-09-27T22:39:17;15.40;;;13.20;;
51525;SDS011;37611;51.794;21.590;2022-09-27T22:43:19;18.90;;;13.60;;
51525;SDS011;37611;51.794;21.590;2022-09-27T22:47:21;15.90;;;12.90;;
51525;SDS011;37611;51.794;21.590;2022-09-27T22:51:22;16.70;;;14.30;;
51525;SDS011;37611;51.794;21.590;2022-09-27T22:55:24;16.40;;;13.80;;
51525;SDS011;37611;51.794;21.590;2022-09-27T22:59:26;17.70;;;13.70;;
51525;SDS011;37611;51.794;21.590;2022-09-27T23:03:28;14.60;;;12.40;;
51525;SDS011;37611;51.794;21.590;2022-09-27T23:07:30;13.80;;;11.90;;
51525;SDS011;37611;51.794;21.590;2022-09-27T23:11:31;16.40;;;12.40;;
51525;SDS011;37611;51.794;21.590;2022-09-27T23:15:33;19.00;;;15.20;;
51525;SDS011;37611;51.794;21.590;2022-09-27T23:19:35;21.50;;;14.60;;
51525;SDS011;37611;51.794;21.590;2022-09-27T23:23:38;15.50;;;11.90;;
51525;SDS011;37611;51.794;21.590;2022-09-27T23:27:42;26.90;;;16.50;;
51525;SDS011;37611;51.794;21.590;2022-09-27T23:31:45;17.70;;;14.10;;
51525;SDS011;37611;51.794;21.590;2022-09-27T23:35:47;20.30;;;15.60;;
51525;SDS011;37611;51.794;21.590;2022-09-27T23:39:50;16.70;;;13.80;;
51525;SDS011;37611;51.794;21.590;2022-09-27T23:43:52;16.50;;;14.80;;
51525;SDS011;37611;51.794;21.590;2022-09-27T23:47:54;15.40;;;13.80;;
51525;SDS011;37611;51.794;21.590;2022-09-27T23:51:57;16.90;;;14.80;;
51525;SDS011;37611;51.794;21.590;2022-09-27T23:56:04;15.70;;;14.10;;
